Skip Navigation Links
NOAA logo - Click to go to the NOAA homepage
NOAA's National Weather Service
Alaska Aviation Weather Unit
  NWS logo - Click to go to the NWS homepage
Left Navbar Graphic     12 AKDT = 20 GMT

   
NOAA is celebrating 200 years of science, service, and stewardship. Visit the NOAA 200th celebration Web site to learn more.
USA.gov is the U.S. Government's official Web portal to all Federal, state and local government Web resources and services.
Facebook
NWS on Facebook

Important Change Regarding the AAWU Web Presence

 

Over the last several months, the AAWU has been working to navigate its webpages to a nationally supported server. Security, as well as other needs, have necessitated the change.  We have been given an extension for the site changeover while we diligently work at addressing feedback received. As of July 14, 2017, aawu.arh.noaa.gov will be discontinued. The new AAWU web address is weather.gov/aawu. It is now live and will run in-parallel with the old site until it is discontinued on July 14, 2017. Please continue to send any feedback or questions regarding the new webpages to nws.ar.aawu.webauthors@noaa.gov.  Thank you for your patience during this time of transition.
AAWU Home :: Display TAF Add Bookmark
TAF CYZP 251838Z 2519/2607 14012G22KT P6SM SCT020 OVC050 TEMPO
     2519/2601 P6SM -SHRA BKN020 OVC050
    FM260100 14015G25KT P6SM SCT012 OVC030 TEMPO 2601/2607 P6SM -SHRA
     BKN012 OVC030
     BECMG 2604/2606 17010KT
    RMK FCST BASED ON AUTO OBS. NXT FCST BY 260100Z=

METAR CYZP 251400Z AUTO 17004KT 9SM OVC025 15/12 A3008 RMK SLP186= METAR CYZP 251500Z AUTO 14006KT 9SM OVC027 15/13 A3007 RMK SLP185= METAR CYZP 251600Z AUTO 13009KT 9SM SCT025 BKN033 OVC085 15/13 A3007 RMK SLP183= METAR CYZP 251700Z AUTO 13010KT 9SM BKN047 BKN055 BKN068 OVC083 16/13 A3006 RMK SLP181= METAR CYZP 251800Z AUTO 14011G17KT 9SM BKN048 OVC055 15/13 A3005 RMK SLP177= METAR CYZP 251900Z AUTO 13015KT 9SM SCT045 OVC050 15/14 A3004 RMK SLP173= METAR CYZP 252000Z AUTO 14015G20KT 9SM FEW038 BKN045 OVC060 16/14 A3003 RMK SLP170=
 Alaska TAF Map

NOAA's National Weather Service
Alaska Aviation Weather Unit
6930 Sand Lake Road
Anchorage, AK 99502-1845
Disclaimer
Credits
Glossary
Privacy Policy
About Us
Career Opportunities
Contact AAWU Internet Services Site last modified: April, 17th 2012